LTFH

Samsun Çarşamba Airport

Samsun, Turkey
TAF AMD LTFH 212351Z 2200/2209 VRB02KT 8000 -RA FEW012 BKN030 BKN090
Issued Valid From Valid To
Jan-21 @ 23:51 UTC
(19 minutes ago)
Jan-22 @ 00:00 UTC
(10 minutes ago)
Jan-22 @ 09:00 UTC
(in 9 hours)
Jan-22 @ 00:00 to Jan-22 @ 09:00
TAF AMD LTFH 212351Z 2200/2209 VRB02KT 8000 -RA FEW012 BKN030 BKN090
Wind Visibility Clouds Conditions
Variable at 2 knots 7,998 meters
  • Few at 1,200' AGL
  • Broken at 3,000' AGL
  • Broken at 9,000' AGL
  • Light Rain
TAF AMD LTFH 212351Z 2200/2209 VRB02KT 8000 -RA FEW012 BKN030 BKN090
Issued Jan-21 @ 23:51 UTC
(19 minutes ago)
Valid From Jan-22 @ 00:00 UTC
(10 minutes ago)
Valid To Jan-22 @ 09:00 UTC
(in 9 hours)
Jan-22 @ 00:00 - Jan-22 @ 09:00
Wind Visibility
Variable at 2 knots 7,998 meters
Clouds
  • Few at 1,200' AGL
  • Broken at 3,000' AGL
  • Broken at 9,000' AGL
Conditions
  • Light Rain